Meteo Giornale » Osservazioni meteo Svizzera » Grenchen

ore: 21:50 - Osservazioni Meteo Grenchen
Lat. 47° 10' N Lon. 7° 24' E Alt. 430 metri s.l.m.

sereno Europe/Zurich

20 °C

Sereno

Temp. 24 Ore

14 °C

30 °C

Nord

3.7 Km/h

Dew point 17 °C

Umidità 82 %

Visibilità  10 Km

Il sole sorge alle ore 06:18

Il sole tramonta alle ore 20:53

Data e Ora Cielo e Fenomeni T °C DP °C Um. % Pres. hPa Vis. km Vento km/h
Oggi h: 21:50 sereno Sereno 20 17 82 1016 10 N 3.7
Oggi h: 21:20 coperto_pioggia Pioggia Debole 21 16 73 1016 10 N 5.5
Oggi h: 20:50 sereno Sereno 23 16 64 1016 10 N 5.5
Oggi h: 20:20 sereno Sereno 25 16 57 1016 10 NE 7.4
Oggi h: 19:50 sereno Sereno 27 16 50 1016 10 E/NE 7.4
Oggi h: 19:20 sereno Sereno 29 15 42 1016 10 E/NE 7.4
Oggi h: 18:50 sereno Sereno 30 13 35 1016 10 E/NE 11.1
Oggi h: 18:20 sereno Sereno 30 15 40 1016 10 E/NE 9.3
Oggi h: 17:50 sereno Sereno 30 15 40 1016 10 E 11.1
Oggi h: 17:20 sereno Sereno 30 16 42 1017 10 E 11.1
Oggi h: 16:50 sereno Sereno 30 15 40 1017 10 E/NE 9.3
Oggi h: 16:20 sereno Sereno 30 15 40 1017 10 E 9.3
Oggi h: 15:50 sereno Sereno 30 15 40 1017 10 E/SE 9.3
Oggi h: 15:20 sereno Sereno 30 13 35 1018 10 E 9.3
Oggi h: 14:50 sereno Sereno 30 16 42 1018 10 N 5.5
Oggi h: 14:20 sereno Sereno 29 15 42 1018 10 E 9.3
Oggi h: 13:50 sereno Sereno 29 17 48 1018 10 E 11.1
Oggi h: 13:20 sereno Sereno 28 14 42 1019 10 E/NE 9.3
Oggi h: 12:50 sereno Sereno 28 17 51 1019 10 E 9.3
Oggi h: 12:20 sereno Sereno 27 18 57 1019 10 E/NE 7.4
Oggi h: 11:50 sereno Sereno 26 15 50 1019 10 E/NE 7.4
Oggi h: 11:20 sereno Sereno 26 17 57 1020 10 N 3.7
Oggi h: 10:50 sereno Sereno 24 16 60 1020 10 N 1.8
Oggi h: 10:20 sereno Sereno 23 16 64 1020 10 N 1.8
Oggi h: 09:50 sereno Sereno 22 18 78 1020 10 N 1.8
Oggi h: 09:20 sereno Sereno 20 17 82 1020 10 N 3.7
Oggi h: 08:50 sereno Sereno 19 16 82 1021 10 N 5.5
Oggi h: 08:20 sereno Sereno 18 16 88 1020 10 N 3.7
Oggi h: 07:50 sereno Sereno 16 16 100 1021 10 N 0
Oggi h: 07:20 sereno Sereno 15 15 100 1021 8 N 0
Oggi h: 06:50 sereno Sereno 14 13 93 1020 8 N 0
Oggi h: 06:20 sereno Sereno 14 14 100 1020 7 N 1.8
Oggi h: 05:50 sereno Sereno 14 14 100 1020 5 N 0
Oggi h: 05:20 sereno Sereno 15 14 93 1020 9 N 0
Oggi h: 04:50 sereno Sereno 15 15 100 1020 8 N 1.8
Oggi h: 04:20 sereno Sereno 15 14 93 1020 5 N 3.7
Oggi h: 03:50 sereno Sereno 16 14 87 1020 10 N 1.8
Oggi h: 03:20 sereno Sereno 15 14 93 1020 10 N 1.8
Oggi h: 02:50 sereno Sereno 15 14 93 1019 10 N 0
Oggi h: 02:20 sereno Sereno 16 14 87 1019 10 N 1.8
Oggi h: 01:50 sereno Sereno 17 15 88 1019 10 N 1.8
Oggi h: 01:20 sereno Sereno 18 16 88 1019 10 N 1.8
Oggi h: 00:50 sereno Sereno 18 16 88 1019 10 N 1.8
Oggi h: 00:20 sereno Sereno 19 16 82 1019 10 N 0
Ieri h: 23:50 sereno Sereno 18 16 88 1020 10 N 3.7
Ieri h: 23:20 sereno Sereno 19 16 82 1020 10 N 3.7
Ieri h: 22:50 sereno Sereno 19 17 88 1020 10 N 5.5